createdAt,value
2022-09-23T11:26:39.922Z,9.40
2022-09-23T11:36:50.292Z,11.20
2022-09-23T11:47:20.805Z,8.80
2022-09-23T11:57:43.685Z,7.50
2022-09-23T12:07:58.900Z,5.10
2022-09-23T12:18:12.267Z,6.70
2022-09-23T12:28:20.347Z,6.80
2022-09-23T12:38:26.540Z,5.80
2022-09-23T12:48:49.144Z,5.20
2022-09-23T12:59:10.500Z,5.60
2022-09-23T13:09:20.268Z,4.80
2022-09-23T13:19:29.152Z,5.40
2022-09-23T13:29:38.912Z,5.80
2022-09-23T13:39:46.515Z,6.00
2022-09-23T13:49:52.707Z,5.10
2022-09-23T14:00:02.869Z,4.90
2022-09-23T14:10:09.155Z,5.50
2022-09-23T14:20:16.092Z,4.90
2022-09-23T14:30:22.142Z,4.60
2022-09-23T14:40:29.601Z,4.50
2022-09-23T14:50:40.968Z,5.00
2022-09-23T15:00:57.459Z,4.60
2022-09-23T15:11:07.840Z,4.30
2022-09-23T15:21:15.800Z,4.40
2022-09-23T15:31:23.070Z,5.10
2022-09-23T15:41:29.217Z,6.30
2022-09-23T15:51:38.187Z,4.70
2022-09-23T16:01:45.293Z,9.30
2022-09-23T16:11:52.366Z,28.70
2022-09-23T16:21:58.540Z,29.10
2022-09-23T16:32:04.749Z,11.80
2022-09-23T16:42:11.612Z,9.70
2022-09-23T16:52:18.202Z,7.10
2022-09-23T17:02:43.105Z,7.10
2022-09-23T17:12:49.261Z,10.20
2022-09-23T17:22:56.449Z,11.20
2022-09-23T17:33:02.597Z,10.40
2022-09-23T17:43:09.000Z,20.60
2022-09-23T17:53:18.152Z,19.80
2022-09-23T18:03:24.853Z,14.70
2022-09-23T18:13:31.082Z,9.50
2022-09-23T18:23:38.054Z,12.00
2022-09-23T18:33:44.267Z,15.60
2022-09-23T18:43:50.686Z,15.50
2022-09-23T18:53:59.077Z,15.60
2022-09-23T19:04:05.510Z,9.30
2022-09-23T19:14:12.408Z,8.00
2022-09-23T19:24:21.188Z,21.90
2022-09-23T19:34:30.429Z,24.30
2022-09-23T19:44:42.256Z,24.40
2022-09-23T19:54:49.927Z,20.60
2022-09-23T20:04:56.322Z,21.10
2022-09-23T20:15:02.445Z,20.30
2022-09-23T20:25:14.430Z,21.90
2022-09-23T20:35:20.490Z,20.30
2022-09-23T20:45:26.541Z,22.20
2022-09-23T20:55:33.186Z,26.10
2022-09-23T21:05:40.987Z,24.10
2022-09-23T21:15:47.202Z,28.90
2022-09-23T21:25:53.593Z,26.60
2022-09-23T21:36:04.641Z,26.30
2022-09-23T21:46:12.035Z,31.60
2022-09-23T21:56:20.936Z,30.90
2022-09-23T22:06:31.730Z,33.90
2022-09-23T22:16:38.042Z,32.40
2022-09-23T22:26:45.113Z,37.80
2022-09-23T22:36:51.130Z,42.10
2022-09-23T22:46:58.484Z,35.80
2022-09-23T22:57:05.201Z,32.30
2022-09-23T23:07:11.261Z,36.40
2022-09-23T23:17:18.078Z,33.90
2022-09-23T23:27:24.309Z,36.50
2022-09-23T23:37:30.955Z,35.40
2022-09-23T23:47:37.131Z,33.10
2022-09-23T23:57:43.690Z,40.30
